createdAt,value
2023-01-18T00:02:24.751Z,98042.81
2023-01-18T00:04:53.882Z,98039.31
2023-01-18T00:07:23.142Z,98028.97
2023-01-18T00:09:53.422Z,98040.03
2023-01-18T00:12:22.822Z,98036.75
2023-01-18T00:14:51.809Z,98032.63
2023-01-18T00:17:21.397Z,98023.19
2023-01-18T00:19:50.449Z,98028.72
2023-01-18T00:22:19.585Z,98022.75
2023-01-18T00:24:48.422Z,98033.38
2023-01-18T00:27:17.835Z,98023.94
2023-01-18T00:29:46.810Z,98025.78
2023-01-18T00:32:17.300Z,98024.31
2023-01-18T00:34:49.193Z,98031.63
2023-01-18T00:37:19.619Z,98034.59
2023-01-18T00:39:48.732Z,98035.63
2023-01-18T00:42:36.151Z,98041.09
2023-01-18T00:45:05.520Z,98042.09
2023-01-18T00:47:34.689Z,98051.88
2023-01-18T00:50:03.770Z,98051.78
2023-01-18T00:52:35.011Z,98058.72
2023-01-18T00:55:05.270Z,98071.16
2023-01-18T00:57:34.565Z,98067.69
2023-01-18T01:00:03.748Z,98067.03
2023-01-18T01:02:32.958Z,98073.31
2023-01-18T01:05:20.441Z,98064.72
2023-01-18T01:07:50.183Z,98068.75
2023-01-18T01:10:19.181Z,98062.81
2023-01-18T01:13:06.680Z,98070.09
2023-01-18T01:15:55.470Z,98080.72
2023-01-18T01:18:42.961Z,98082.06
2023-01-18T01:21:30.332Z,98092.66
2023-01-18T01:24:18.248Z,98086.41
2023-01-18T01:26:47.032Z,98093.56
2023-01-18T01:29:16.699Z,98091.72
2023-01-18T01:31:45.663Z,98102.31
2023-01-18T01:34:15.133Z,98098.84
2023-01-18T01:36:43.894Z,98100.22
2023-01-18T01:39:13.480Z,98084.47
2023-01-18T01:41:42.357Z,98097.09
2023-01-18T01:44:20.697Z,98094.44
2023-01-18T01:47:05.100Z,98102.56
2023-01-18T01:49:44.166Z,98108.03
2023-01-18T01:52:20.501Z,98106.38
2023-01-18T01:55:12.302Z,98114.50
2023-01-18T01:57:51.890Z,98121.63
2023-01-18T02:00:27.691Z,98121.97
2023-01-18T02:03:02.466Z,98121.16
2023-01-18T02:05:32.731Z,98123.16
2023-01-18T02:08:02.505Z,98129.28
2023-01-18T02:10:31.920Z,98139.06
2023-01-18T02:13:00.834Z,98125.88
2023-01-18T02:15:44.771Z,98126.97
2023-01-18T02:18:25.606Z,98119.72
2023-01-18T02:21:39.940Z,98109.78
2023-01-18T02:24:46.248Z,98105.50
2023-01-18T02:27:34.959Z,98098.53
2023-01-18T02:30:12.159Z,98100.53
2023-01-18T02:33:14.141Z,98102.38
2023-01-18T02:35:50.927Z,98091.00
2023-01-18T02:38:47.951Z,98111.50
2023-01-18T02:42:15.822Z,98112.47
2023-01-18T02:45:05.010Z,98112.00
2023-01-18T02:47:34.364Z,98124.41
2023-01-18T02:50:03.953Z,98130.91
2023-01-18T02:52:39.935Z,98137.19
2023-01-18T02:55:38.628Z,98126.41
2023-01-18T02:58:29.436Z,98133.72
2023-01-18T03:01:11.293Z,98130.41
2023-01-18T03:03:41.694Z,98134.69
2023-01-18T03:06:11.180Z,98137.53
2023-01-18T03:08:47.618Z,98148.94
2023-01-18T03:11:32.429Z,98156.25
2023-01-18T03:14:15.628Z,98165.16
2023-01-18T03:17:08.415Z,98165.16
2023-01-18T03:19:58.114Z,98162.88
2023-01-18T03:22:47.071Z,98159.59
2023-01-18T03:25:19.262Z,98170.16
2023-01-18T03:28:07.672Z,98189.69
2023-01-18T03:30:55.145Z,98190.69
2023-01-18T03:33:46.581Z,98188.38
2023-01-18T03:36:36.939Z,98186.75
2023-01-18T03:39:13.359Z,98189.38
2023-01-18T03:41:45.539Z,98190.38
2023-01-18T03:44:29.864Z,98183.41
2023-01-18T03:46:58.991Z,98183.59
2023-01-18T03:49:29.545Z,98189.88
2023-01-18T03:52:31.276Z,98199.66
2023-01-18T03:55:17.429Z,98205.75
2023-01-18T03:58:13.151Z,98200.63
2023-01-18T04:00:42.790Z,98194.69
2023-01-18T04:03:12.131Z,98198.34
2023-01-18T04:05:41.571Z,98207.28
2023-01-18T04:08:10.826Z,98192.41
2023-01-18T04:10:40.440Z,98201.31
2023-01-18T04:13:09.876Z,98205.63
2023-01-18T04:15:39.533Z,98207.63
2023-01-18T04:18:08.787Z,98211.91
2023-01-18T04:20:38.540Z,98211.25
2023-01-18T04:23:07.908Z,98209.63
2023-01-18T04:25:41.112Z,98204.47
2023-01-18T04:28:10.169Z,98220.53
2023-01-18T04:30:40.228Z,98213.59
2023-01-18T04:33:09.289Z,98201.31
2023-01-18T04:35:39.220Z,98216.38
2023-01-18T04:38:08.438Z,98218.88
2023-01-18T04:40:38.019Z,98222.19
2023-01-18T04:43:07.083Z,98215.22
2023-01-18T04:45:36.532Z,98217.38
2023-01-18T04:48:05.700Z,98226.94
2023-01-18T04:50:34.900Z,98228.75
2023-01-18T04:53:04.202Z,98228.88
2023-01-18T04:55:34.172Z,98236.59
2023-01-18T04:58:03.040Z,98240.38
2023-01-18T05:00:32.170Z,98243.81
2023-01-18T05:03:01.319Z,98261.16
2023-01-18T05:05:30.683Z,98256.97
2023-01-18T05:07:59.520Z,98265.88
2023-01-18T05:10:28.940Z,98266.84
2023-01-18T05:12:57.968Z,98256.69
2023-01-18T05:15:27.470Z,98261.94
2023-01-18T05:17:56.322Z,98261.25
2023-01-18T05:20:25.446Z,98256.91
2023-01-18T05:22:54.249Z,98262.13
2023-01-18T05:25:23.380Z,98273.22
2023-01-18T05:27:52.190Z,98271.69
2023-01-18T05:30:21.323Z,98271.72
2023-01-18T05:32:50.090Z,98277.00
2023-01-18T05:35:19.210Z,98275.47
2023-01-18T05:37:47.982Z,98281.84
2023-01-18T05:40:17.363Z,98280.44
2023-01-18T05:42:46.176Z,98282.06
2023-01-18T05:45:17.708Z,98277.41
2023-01-18T05:47:46.522Z,98293.53
2023-01-18T05:50:16.245Z,98287.72
2023-01-18T05:52:45.074Z,98298.34
2023-01-18T05:55:14.220Z,98306.03
2023-01-18T05:57:42.680Z,98308.00
2023-01-18T06:00:13.139Z,98328.50
2023-01-18T06:02:41.775Z,98337.94
2023-01-18T06:05:12.177Z,98343.91
2023-01-18T06:07:42.702Z,98347.94
2023-01-18T06:10:12.603Z,98357.38
2023-01-18T06:12:41.771Z,98363.16
2023-01-18T06:15:12.764Z,98348.75
2023-01-18T06:17:41.548Z,98356.28
2023-01-18T06:20:12.798Z,98356.75
2023-01-18T06:22:41.557Z,98355.91
2023-01-18T06:25:10.541Z,98365.38
2023-01-18T06:27:39.763Z,98366.91
2023-01-18T06:30:11.925Z,98369.09
2023-01-18T06:32:40.424Z,98378.44
2023-01-18T06:35:09.463Z,98380.56
2023-01-18T06:37:38.083Z,98383.25
2023-01-18T06:40:09.832Z,98387.75
2023-01-18T06:42:39.322Z,98387.84
2023-01-18T06:45:09.151Z,98387.03
2023-01-18T06:47:37.761Z,98385.75
2023-01-18T06:50:06.971Z,98401.03
2023-01-18T06:52:35.709Z,98395.44
2023-01-18T06:55:05.090Z,98390.81
2023-01-18T06:57:33.642Z,98400.16
2023-01-18T07:00:06.262Z,98404.81
2023-01-18T07:02:35.933Z,98403.53
2023-01-18T07:05:05.743Z,98403.88
2023-01-18T07:07:34.413Z,98411.38
2023-01-18T07:10:03.299Z,98405.00
2023-01-18T07:12:32.041Z,98412.78
2023-01-18T07:15:09.913Z,98424.22
2023-01-18T07:17:50.755Z,98430.22
2023-01-18T07:20:20.136Z,98431.91
2023-01-18T07:22:52.948Z,98442.69
2023-01-18T07:25:22.853Z,98437.09
2023-01-18T07:27:51.583Z,98437.28
2023-01-18T07:30:20.622Z,98432.84
2023-01-18T07:32:51.202Z,98445.59
2023-01-18T07:35:24.281Z,98444.78
2023-01-18T07:37:55.700Z,98444.31
2023-01-18T07:40:24.861Z,98452.75
2023-01-18T07:43:00.055Z,98442.50
2023-01-18T07:45:29.484Z,98442.84
2023-01-18T07:47:58.198Z,98445.50
2023-01-18T07:50:27.225Z,98444.19
2023-01-18T07:52:57.059Z,98442.19
2023-01-18T07:55:26.311Z,98453.97
2023-01-18T07:57:56.630Z,98449.81
2023-01-18T08:00:27.535Z,98446.72
2023-01-18T08:02:58.928Z,98446.06
2023-01-18T08:05:30.181Z,98454.31
2023-01-18T08:07:59.987Z,98459.97
2023-01-18T08:10:29.964Z,98460.31
2023-01-18T08:12:58.987Z,98461.50
2023-01-18T08:15:28.205Z,98470.41
2023-01-18T08:17:57.113Z,98486.47
2023-01-18T08:20:27.398Z,98488.47
2023-01-18T08:23:00.193Z,98492.28
2023-01-18T08:25:30.443Z,98496.78
2023-01-18T08:28:00.127Z,98499.75
2023-01-18T08:30:31.091Z,98495.63
2023-01-18T08:33:01.028Z,98499.59
2023-01-18T08:35:32.291Z,98505.22
2023-01-18T08:38:01.363Z,98502.72
2023-01-18T08:40:30.832Z,98515.31
2023-01-18T08:43:01.382Z,98519.97
2023-01-18T08:45:30.711Z,98535.19
2023-01-18T08:48:07.329Z,98545.13
2023-01-18T08:50:37.203Z,98558.38
2023-01-18T08:53:06.019Z,98552.41
2023-01-18T08:55:36.901Z,98545.63
2023-01-18T08:58:05.724Z,98548.44
2023-01-18T09:00:34.800Z,98560.19
2023-01-18T09:03:06.332Z,98565.81
2023-01-18T09:05:36.868Z,98578.22
2023-01-18T09:08:05.985Z,98582.00
2023-01-18T09:10:37.641Z,98597.25
2023-01-18T09:13:06.598Z,98590.47
2023-01-18T09:15:35.660Z,98591.47
2023-01-18T09:18:06.539Z,98594.13
2023-01-18T09:20:36.451Z,98615.59
2023-01-18T09:23:08.675Z,98625.53
2023-01-18T09:25:38.002Z,98621.22
2023-01-18T09:28:06.811Z,98628.50
2023-01-18T09:30:36.158Z,98635.78
2023-01-18T09:33:05.352Z,98636.94
2023-01-18T09:35:34.431Z,98638.09
2023-01-18T09:38:03.113Z,98648.69
2023-01-18T09:40:44.065Z,98655.78
2023-01-18T09:43:26.961Z,98661.25
2023-01-18T09:45:57.375Z,98672.97
2023-01-18T09:48:32.799Z,98672.28
2023-01-18T09:51:05.884Z,98678.41
2023-01-18T09:53:53.721Z,98682.22
2023-01-18T09:56:34.640Z,98692.00
2023-01-18T09:59:36.078Z,98692.97
2023-01-18T10:02:18.072Z,98702.88
2023-01-18T10:04:50.643Z,98703.88
2023-01-18T10:07:19.627Z,98707.50
2023-01-18T10:10:07.145Z,98715.59
2023-01-18T10:12:49.593Z,98719.25
2023-01-18T10:15:20.856Z,98731.66
2023-01-18T10:17:52.301Z,98732.63
2023-01-18T10:20:23.963Z,98736.44
2023-01-18T10:23:17.218Z,98746.34
2023-01-18T10:25:47.575Z,98750.81
2023-01-18T10:28:50.803Z,98756.09
2023-01-18T10:31:56.629Z,98758.06
2023-01-18T10:34:30.808Z,98757.34
2023-01-18T10:37:15.114Z,98760.69
2023-01-18T10:40:03.627Z,98763.34
2023-01-18T10:42:47.404Z,98766.69
2023-01-18T10:45:22.334Z,98759.09
2023-01-18T10:47:52.435Z,98748.88
2023-01-18T10:50:33.349Z,98748.75
2023-01-18T10:53:22.180Z,98747.19
2023-01-18T10:56:17.749Z,98751.34
2023-01-18T10:58:52.234Z,98748.13
2023-01-18T11:01:23.650Z,98742.84
2023-01-18T11:03:58.746Z,98738.25
2023-01-18T11:06:29.953Z,98734.63
2023-01-18T11:08:58.643Z,98741.91
2023-01-18T11:11:45.978Z,98735.66
2023-01-18T11:14:28.459Z,98746.94
2023-01-18T11:17:11.262Z,98738.00
2023-01-18T11:19:41.765Z,98733.38
2023-01-18T11:22:14.060Z,98731.22
2023-01-18T11:24:42.675Z,98727.06
2023-01-18T11:27:23.355Z,98721.25
2023-01-18T11:29:52.031Z,98720.91
2023-01-18T11:32:29.455Z,98716.25
2023-01-18T11:35:00.189Z,98712.25
2023-01-18T11:37:36.097Z,98717.88
2023-01-18T11:40:27.044Z,98714.69
2023-01-18T11:43:10.295Z,98710.19
2023-01-18T11:46:01.996Z,98717.81
2023-01-18T11:49:04.896Z,98713.59
2023-01-18T11:51:39.256Z,98701.41
2023-01-18T11:54:28.862Z,98711.13
2023-01-18T11:57:03.252Z,98710.56
2023-01-18T11:59:34.405Z,98717.59
2023-01-18T12:02:36.745Z,98715.66
2023-01-18T12:05:41.123Z,98718.38
2023-01-18T12:08:27.733Z,98717.41
2023-01-18T12:11:14.849Z,98707.09
2023-01-18T12:14:00.134Z,98712.13
2023-01-18T12:17:13.484Z,98707.22
2023-01-18T12:20:25.976Z,98726.19
2023-01-18T12:23:28.511Z,98717.59
2023-01-18T12:26:30.135Z,98715.94
2023-01-18T12:29:50.298Z,98728.56
2023-01-18T12:32:42.707Z,98721.28
2023-01-18T12:35:24.018Z,98739.88
2023-01-18T12:38:19.976Z,98739.72
2023-01-18T12:41:10.616Z,98744.38
2023-01-18T12:44:08.701Z,98755.97
2023-01-18T12:46:46.360Z,98750.19
2023-01-18T12:49:23.555Z,98757.50
2023-01-18T12:52:09.195Z,98764.09
2023-01-18T12:54:57.108Z,98777.41
2023-01-18T12:57:27.368Z,98779.03
2023-01-18T13:00:23.377Z,98772.69
2023-01-18T13:02:56.926Z,98767.22
2023-01-18T13:05:52.550Z,98772.00
2023-01-18T13:08:47.443Z,98770.00
2023-01-18T13:11:42.296Z,98778.13
2023-01-18T13:14:25.938Z,98778.47
2023-01-18T13:16:59.594Z,98786.13
2023-01-18T13:20:17.403Z,98788.97
2023-01-18T13:22:56.723Z,98783.50
2023-01-18T13:25:34.760Z,98780.34
2023-01-18T13:28:05.867Z,98785.19
2023-01-18T13:30:44.390Z,98779.56
2023-01-18T13:33:13.741Z,98775.06
2023-01-18T13:36:14.324Z,98776.72
2023-01-18T13:38:55.212Z,98770.13
2023-01-18T13:41:29.604Z,98770.78
2023-01-18T13:44:44.614Z,98768.50
2023-01-18T13:47:46.159Z,98770.81
2023-01-18T13:50:40.005Z,98755.06
2023-01-18T13:53:14.878Z,98764.50
2023-01-18T13:55:55.672Z,98772.16
2023-01-18T13:58:30.023Z,98763.34
2023-01-18T14:01:03.909Z,98765.63
2023-01-18T14:03:44.256Z,98777.78
2023-01-18T14:06:24.052Z,98776.75
2023-01-18T14:09:05.510Z,98781.72
2023-01-18T14:11:38.401Z,98772.41
2023-01-18T14:14:27.277Z,98778.72
2023-01-18T14:17:17.188Z,98778.06
2023-01-18T14:19:48.633Z,98776.69
2023-01-18T14:22:26.090Z,98777.69
2023-01-18T14:25:40.050Z,98786.03
2023-01-18T14:28:18.343Z,98786.03
2023-01-18T14:30:47.355Z,98784.22
2023-01-18T14:33:39.812Z,98785.03
2023-01-18T14:36:24.765Z,98775.09
2023-01-18T14:39:17.923Z,98791.84
2023-01-18T14:41:49.731Z,98784.41
2023-01-18T14:44:24.661Z,98790.03
2023-01-18T14:46:56.899Z,98787.41
2023-01-18T14:49:31.299Z,98792.03
2023-01-18T14:52:00.098Z,98787.41
2023-01-18T14:54:28.596Z,98775.28
2023-01-18T14:57:05.676Z,98781.44
2023-01-18T14:59:34.393Z,98773.16
2023-01-18T15:02:16.613Z,98774.13
2023-01-18T15:04:46.980Z,98778.97
2023-01-18T15:07:27.720Z,98779.28
2023-01-18T15:09:56.176Z,98784.75
2023-01-18T15:12:31.053Z,98786.44
2023-01-18T15:15:25.237Z,98781.94
2023-01-18T15:17:57.566Z,98792.72
2023-01-18T15:20:27.022Z,98789.38
2023-01-18T15:22:56.020Z,98794.03
2023-01-18T15:25:27.629Z,98797.00
2023-01-18T15:28:01.952Z,98794.16
2023-01-18T15:30:35.216Z,98796.34
2023-01-18T15:33:04.310Z,98803.97
2023-01-18T15:35:33.153Z,98805.78
2023-01-18T15:38:05.214Z,98800.63
2023-01-18T15:40:33.759Z,98813.41
2023-01-18T15:43:09.576Z,98820.72
2023-01-18T15:45:40.568Z,98832.69
2023-01-18T15:48:13.497Z,98834.03
2023-01-18T15:50:53.980Z,98827.53
2023-01-18T15:53:39.930Z,98842.47
2023-01-18T15:56:14.913Z,98842.16
2023-01-18T15:58:51.709Z,98845.31
2023-01-18T16:01:28.208Z,98849.47
2023-01-18T16:04:19.281Z,98838.81
2023-01-18T16:06:48.059Z,98834.69
2023-01-18T16:09:20.893Z,98846.47
2023-01-18T16:11:54.724Z,98840.16
2023-01-18T16:14:38.570Z,98843.47
2023-01-18T16:17:18.539Z,98851.59
2023-01-18T16:19:57.959Z,98831.84
2023-01-18T16:22:36.562Z,98852.44
2023-01-18T16:25:21.149Z,98851.75
2023-01-18T16:27:54.342Z,98855.06
2023-01-18T16:30:30.632Z,98855.44
2023-01-18T16:33:10.228Z,98850.44
2023-01-18T16:35:42.247Z,98859.41
2023-01-18T16:38:15.843Z,98857.75
2023-01-18T16:40:47.204Z,98848.28
2023-01-18T16:43:22.003Z,98854.25
2023-01-18T16:45:53.077Z,98840.81
2023-01-18T16:48:24.322Z,98841.47
2023-01-18T16:50:53.159Z,98836.81
2023-01-18T16:53:22.486Z,98832.16
2023-01-18T16:55:51.454Z,98833.19
2023-01-18T16:58:21.610Z,98829.84
2023-01-18T17:01:10.827Z,98824.53
2023-01-18T17:03:39.787Z,98831.84
2023-01-18T17:06:17.974Z,98842.94
2023-01-18T17:08:46.667Z,98833.66
2023-01-18T17:11:15.607Z,98849.44
2023-01-18T17:13:45.130Z,98846.28
2023-01-18T17:16:17.128Z,98856.25
2023-01-18T17:18:46.726Z,98848.44
2023-01-18T17:21:15.709Z,98855.41
2023-01-18T17:23:45.487Z,98855.75
2023-01-18T17:26:16.148Z,98863.06
2023-01-18T17:28:46.199Z,98875.31
2023-01-18T17:31:15.027Z,98880.97
2023-01-18T17:33:43.970Z,98880.47
2023-01-18T17:36:12.723Z,98886.75
2023-01-18T17:38:41.238Z,98886.09
2023-01-18T17:41:22.999Z,98895.41
2023-01-18T17:43:55.535Z,98904.03
2023-01-18T17:46:24.445Z,98902.53
2023-01-18T17:48:53.082Z,98906.88
2023-01-18T17:51:21.881Z,98898.22
2023-01-18T17:53:50.432Z,98905.22
2023-01-18T17:56:19.507Z,98916.13
2023-01-18T17:58:49.017Z,98923.81
2023-01-18T18:01:18.392Z,98927.47
2023-01-18T18:03:49.159Z,98923.50
2023-01-18T18:06:30.292Z,98932.78
2023-01-18T18:09:02.973Z,98928.31
2023-01-18T18:11:31.809Z,98943.06
2023-01-18T18:14:02.270Z,98941.94
2023-01-18T18:16:34.363Z,98931.13
2023-01-18T18:19:07.127Z,98938.09
2023-01-18T18:21:37.027Z,98941.06
2023-01-18T18:24:07.337Z,98951.34
2023-01-18T18:26:36.217Z,98950.50
2023-01-18T18:29:04.907Z,98958.97
2023-01-18T18:31:33.849Z,98960.97
2023-01-18T18:34:02.527Z,98966.75
2023-01-18T18:36:31.401Z,98961.13
2023-01-18T18:39:06.097Z,98977.88
2023-01-18T18:41:34.924Z,98976.56
2023-01-18T18:44:03.359Z,98979.53
2023-01-18T18:46:32.382Z,98984.16
2023-01-18T18:49:00.912Z,98999.94
2023-01-18T18:51:29.858Z,98986.94
2023-01-18T18:53:58.375Z,99010.69
2023-01-18T18:56:27.334Z,99004.72
2023-01-18T18:58:57.220Z,98996.88
2023-01-18T19:01:29.484Z,98993.56
2023-01-18T19:03:58.984Z,99010.47
2023-01-18T19:06:28.111Z,99010.94
2023-01-18T19:08:57.639Z,99018.91
2023-01-18T19:11:26.811Z,99026.22
2023-01-18T19:13:56.415Z,99022.53
2023-01-18T19:16:25.608Z,99018.56
2023-01-18T19:18:54.071Z,99024.88
2023-01-18T19:21:23.211Z,99036.38
2023-01-18T19:23:51.778Z,99026.44
2023-01-18T19:26:20.716Z,99040.56
2023-01-18T19:28:49.263Z,99032.59
2023-01-18T19:31:19.183Z,99050.59
2023-01-18T19:33:48.140Z,99053.25
2023-01-18T19:36:17.165Z,99050.81
2023-01-18T19:38:49.260Z,99059.94
2023-01-18T19:41:21.792Z,99060.66
2023-01-18T19:43:50.634Z,99060.66
2023-01-18T19:46:22.588Z,99061.78
2023-01-18T19:48:58.387Z,99056.47
2023-01-18T19:51:28.766Z,99055.97
2023-01-18T19:53:57.930Z,99052.63
2023-01-18T19:56:29.259Z,99049.50
2023-01-18T19:58:58.177Z,99047.31
2023-01-18T20:01:36.548Z,99043.31
2023-01-18T20:04:06.813Z,99043.47
2023-01-18T20:06:37.668Z,99040.28
2023-01-18T20:09:17.731Z,99040.94
2023-01-18T20:11:48.206Z,99034.16
2023-01-18T20:14:18.484Z,99024.34
2023-01-18T20:16:48.018Z,99034.97
2023-01-18T20:19:17.649Z,99031.66
2023-01-18T20:21:46.558Z,99023.66
2023-01-18T20:24:16.389Z,99018.34
2023-01-18T20:26:45.383Z,99022.81
2023-01-18T20:29:13.987Z,99019.97
2023-01-18T20:31:48.489Z,99024.63
2023-01-18T20:34:19.225Z,99032.28
2023-01-18T20:36:50.369Z,99029.97
2023-01-18T20:39:19.369Z,99028.19
2023-01-18T20:41:50.394Z,99035.50
2023-01-18T20:44:18.922Z,99026.03
2023-01-18T20:46:48.407Z,99016.75
2023-01-18T20:49:22.455Z,99017.78
2023-01-18T20:51:56.142Z,99037.41
2023-01-18T20:54:24.654Z,99033.91
2023-01-18T20:56:54.635Z,99042.88
2023-01-18T20:59:23.878Z,99045.53
2023-01-18T21:01:53.313Z,99046.53
2023-01-18T21:04:22.156Z,99049.34
2023-01-18T21:06:51.172Z,99052.31
2023-01-18T21:09:20.165Z,99047.34
2023-01-18T21:11:49.334Z,99056.81
2023-01-18T21:14:18.143Z,99058.31
2023-01-18T21:16:47.297Z,99047.84
2023-01-18T21:19:16.067Z,99053.50
2023-01-18T21:21:45.344Z,99048.00
2023-01-18T21:24:14.051Z,99053.16
2023-01-18T21:26:43.008Z,99054.97
2023-01-18T21:29:14.330Z,99045.03
2023-01-18T21:31:43.363Z,99049.97
2023-01-18T21:34:12.088Z,99045.53
2023-01-18T21:36:41.105Z,99051.66
2023-01-18T21:39:18.433Z,99053.66
2023-01-18T21:42:06.290Z,99061.00
2023-01-18T21:44:53.473Z,99059.81
2023-01-18T21:47:22.654Z,99065.63
2023-01-18T21:50:18.641Z,99066.63
2023-01-18T21:53:06.529Z,99065.81
2023-01-18T21:55:35.727Z,99063.59
2023-01-18T21:58:23.078Z,99056.66
2023-01-18T22:00:51.879Z,99057.66
2023-01-18T22:03:21.052Z,99067.09
2023-01-18T22:05:52.259Z,99068.25
2023-01-18T22:08:21.289Z,99070.56
2023-01-18T22:10:50.142Z,99076.91
2023-01-18T22:13:20.300Z,99083.56
2023-01-18T22:15:48.978Z,99082.03
2023-01-18T22:18:18.027Z,99083.53
2023-01-18T22:20:56.795Z,99080.75
2023-01-18T22:23:25.839Z,99085.06
2023-01-18T22:25:55.507Z,99083.72
2023-01-18T22:28:24.540Z,99085.56
2023-01-18T22:30:53.380Z,99081.59
2023-01-18T22:33:22.527Z,99092.88
2023-01-18T22:35:56.779Z,99083.56
2023-01-18T22:38:25.858Z,99088.88
2023-01-18T22:41:04.629Z,99086.88
2023-01-18T22:43:35.247Z,99092.19
2023-01-18T22:46:04.173Z,99091.16
2023-01-18T22:48:34.724Z,99087.03
2023-01-18T22:51:04.067Z,99085.84
2023-01-18T22:53:33.735Z,99087.28
2023-01-18T22:56:08.928Z,99085.81
2023-01-18T22:58:38.088Z,99085.63
2023-01-18T23:01:15.836Z,99085.94
2023-01-18T23:03:46.224Z,99087.41
2023-01-18T23:06:14.967Z,99091.38
2023-01-18T23:08:44.224Z,99088.06
2023-01-18T23:11:24.137Z,99079.75
2023-01-18T23:14:13.607Z,99084.72
2023-01-18T23:17:01.262Z,99093.00
2023-01-18T23:19:31.025Z,99088.31
2023-01-18T23:21:59.934Z,99094.81
2023-01-18T23:24:29.009Z,99093.28
2023-01-18T23:26:57.801Z,99091.94
2023-01-18T23:29:26.886Z,99078.31
2023-01-18T23:31:57.383Z,99079.47
2023-01-18T23:34:27.332Z,99085.91
2023-01-18T23:36:56.017Z,99083.75
2023-01-18T23:39:43.083Z,99087.53
2023-01-18T23:42:30.773Z,99072.25
2023-01-18T23:45:19.162Z,99080.03
2023-01-18T23:48:06.227Z,99089.47
2023-01-18T23:50:53.695Z,99098.59
2023-01-18T23:53:41.086Z,99101.53
2023-01-18T23:56:10.092Z,99094.75
2023-01-18T23:58:39.610Z,99106.50
